Time;durP1;ratioP1;P1;durP2;ratioP2;P2;SDS_P1;SDS_P2;PMS_P1;PMS_P2;Temp;Humidity;BMP_temperature;BMP_pressure;BME280_temperature;BME280_humidity;BME280_pressure;Samples;Min_cycle;Max_cycle;Signal;HPM_P1;HPM_P2
2023/06/18 05:00:28;;;;;;;11.53;10.40;;;18.50;97.20;;;;;;1728203;28;20184;-74
2023/06/18 05:01:20;;;;;;;11.20;10.20;;;18.50;97.20;;;;;;1728285;28;20699;-74
2023/06/18 05:02:11;;;;;;;11.18;10.27;;;18.50;97.20;;;;;;1727925;28;20208;-73
2023/06/18 05:03:03;;;;;;;10.13;9.20;;;18.50;97.20;;;;;;1728205;28;20200;-72
2023/06/18 05:03:55;;;;;;;10.77;9.88;;;18.50;97.20;;;;;;1728066;28;20225;-73
2023/06/18 05:04:46;;;;;;;10.20;9.30;;;18.50;97.20;;;;;;1728236;28;20209;-71
2023/06/18 05:05:37;;;;;;;11.13;10.13;;;18.50;97.20;;;;;;1728262;28;20283;-72
2023/06/18 05:06:28;;;;;;;10.98;10.07;;;18.60;97.20;;;;;;1728113;28;20205;-72
2023/06/18 05:07:20;;;;;;;12.23;10.97;;;18.60;97.20;;;;;;1728144;28;20207;-71
2023/06/18 05:08:11;;;;;;;10.90;9.80;;;18.60;97.20;;;;;;1727281;28;20204;-72
2023/06/18 05:09:03;;;;;;;11.43;10.38;;;18.60;97.20;;;;;;1727960;28;20205;-71
2023/06/18 05:09:54;;;;;;;11.48;10.52;;;18.60;97.20;;;;;;1728124;28;20212;-72
2023/06/18 05:10:46;;;;;;;10.93;9.93;;;18.60;97.20;;;;;;1727993;28;20220;-71
2023/06/18 05:11:37;;;;;;;11.50;10.50;;;18.60;97.20;;;;;;1727911;28;20201;-72
2023/06/18 05:12:27;;;;;;;10.37;9.47;;;18.60;97.20;;;;;;1727803;28;20655;-71
2023/06/18 05:13:20;;;;;;;11.67;9.60;;;18.60;97.20;;;;;;1728151;28;20216;-73
2023/06/18 05:14:11;;;;;;;11.43;10.32;;;18.70;97.20;;;;;;1727932;28;20227;-71
2023/06/18 05:15:03;;;;;;;11.73;10.63;;;18.70;97.20;;;;;;1728355;28;20214;-71
2023/06/18 05:15:55;;;;;;;10.55;9.55;;;18.70;97.20;;;;;;1728354;28;20201;-71
2023/06/18 05:16:46;;;;;;;10.95;10.05;;;18.70;97.20;;;;;;1728265;28;20205;-71
2023/06/18 05:17:37;;;;;;;11.95;10.77;;;18.70;97.20;;;;;;1728360;28;20252;-71
2023/06/18 05:18:29;;;;;;;10.97;10.00;;;18.80;97.20;;;;;;1728030;28;20199;-72
2023/06/18 05:19:19;;;;;;;11.75;10.57;;;18.80;97.20;;;;;;1728070;28;20208;-72
2023/06/18 05:20:12;;;;;;;11.40;10.40;;;18.80;97.20;;;;;;1728032;28;20688;-71
2023/06/18 05:21:03;;;;;;;10.80;9.90;;;18.80;97.20;;;;;;1728123;28;20219;-73
2023/06/18 05:21:57;;;;;;;11.07;10.13;;;18.80;97.20;;;;;;1727213;28;20231;-72
2023/06/18 05:22:47;;;;;;;10.63;9.73;;;18.90;97.20;;;;;;1728105;28;20742;-72
2023/06/18 05:23:39;;;;;;;11.73;10.53;;;18.80;97.20;;;;;;1727759;28;20621;-72
2023/06/18 05:24:30;;;;;;;11.43;10.43;;;18.90;97.20;;;;;;1727772;28;20200;-73
2023/06/18 05:25:21;;;;;;;11.13;10.10;;;18.90;97.20;;;;;;1728194;28;20200;-75
2023/06/18 05:26:12;;;;;;;10.77;9.88;;;18.90;97.20;;;;;;1727814;28;20206;-73
2023/06/18 05:27:04;;;;;;;11.30;10.20;;;19.00;97.20;;;;;;1728164;28;20211;-74
2023/06/18 05:27:55;;;;;;;10.45;9.45;;;19.00;97.20;;;;;;1727676;28;20212;-74
2023/06/18 05:28:47;;;;;;;11.30;10.40;;;19.00;97.20;;;;;;1727558;28;20197;-74
2023/06/18 05:29:37;;;;;;;11.68;10.68;;;19.00;97.20;;;;;;1728080;28;20200;-74
2023/06/18 05:30:29;;;;;;;11.43;10.27;;;19.10;97.20;;;;;;1727661;28;20197;-75
2023/06/18 05:31:21;;;;;;;11.32;10.38;;;19.10;97.20;;;;;;1728184;28;20335;-74
2023/06/18 05:32:13;;;;;;;11.23;10.15;;;19.10;97.20;;;;;;1727807;28;20215;-74
2023/06/18 05:33:04;;;;;;;10.88;9.63;;;19.20;97.20;;;;;;1728029;28;20204;-74
2023/06/18 05:33:56;;;;;;;10.33;9.47;;;19.20;97.20;;;;;;1727926;28;20234;-75
2023/06/18 05:34:47;;;;;;;11.25;10.30;;;19.20;97.20;;;;;;1728066;28;20481;-74
2023/06/18 05:35:38;;;;;;;10.67;9.73;;;19.30;97.20;;;;;;1728101;28;20196;-74
2023/06/18 05:36:29;;;;;;;10.30;9.40;;;19.30;97.20;;;;;;1728143;28;20447;-74
2023/06/18 05:37:21;;;;;;;10.27;9.37;;;19.30;97.20;;;;;;1727980;28;20654;-74
2023/06/18 05:38:11;;;;;;;10.45;9.23;;;19.30;97.20;;;;;;1727656;28;20205;-74
2023/06/18 05:39:03;;;;;;;10.67;9.77;;;19.40;97.20;;;;;;1727796;28;20201;-73
2023/06/18 05:39:54;;;;;;;10.45;9.63;;;19.40;97.20;;;;;;1727909;28;20200;-75
2023/06/18 05:40:46;;;;;;;10.03;9.13;;;19.40;97.20;;;;;;1727871;28;20220;-73
2023/06/18 05:41:36;;;;;;;10.48;9.57;;;19.40;97.20;;;;;;1728017;28;20200;-74
2023/06/18 05:42:28;;;;;;;11.30;10.30;;;19.50;97.20;;;;;;1727768;28;20207;-75
2023/06/18 05:43:19;;;;;;;11.63;10.63;;;19.50;97.20;;;;;;1727946;28;20208;-75
2023/06/18 05:44:10;;;;;;;10.37;9.47;;;19.50;97.20;;;;;;1727889;28;20204;-74
2023/06/18 05:45:02;;;;;;;10.50;9.60;;;19.60;97.20;;;;;;1727983;28;20200;-75
2023/06/18 05:45:54;;;;;;;11.27;10.30;;;19.60;97.20;;;;;;1727966;28;20228;-73
2023/06/18 05:46:46;;;;;;;11.75;9.98;;;19.60;97.20;;;;;;1727996;28;20291;-74
2023/06/18 05:47:37;;;;;;;11.27;10.30;;;19.70;97.20;;;;;;1728033;28;20270;-74
2023/06/18 05:48:28;;;;;;;10.90;9.90;;;19.70;97.20;;;;;;1727821;28;20259;-74
2023/06/18 05:49:19;;;;;;;11.65;10.68;;;19.70;97.20;;;;;;1727662;28;20247;-74
2023/06/18 05:50:11;;;;;;;10.60;9.70;;;19.80;97.20;;;;;;1727698;28;20220;-74
2023/06/18 05:51:02;;;;;;;10.23;9.20;;;19.80;97.20;;;;;;1728015;28;20586;-74
2023/06/18 05:51:53;;;;;;;11.13;10.17;;;19.80;97.20;;;;;;1727610;28;20200;-74
2023/06/18 05:52:44;;;;;;;11.52;10.43;;;19.80;97.20;;;;;;1727945;28;20588;-74
2023/06/18 05:53:36;;;;;;;10.60;9.60;;;19.90;97.20;;;;;;1727854;28;20201;-74
2023/06/18 05:54:27;;;;;;;10.85;9.80;;;19.90;97.20;;;;;;1727900;28;20216;-74
2023/06/18 05:55:18;;;;;;;10.90;9.90;;;19.90;97.20;;;;;;1727900;28;20223;-74
2023/06/18 05:56:09;;;;;;;11.45;10.25;;;19.90;97.20;;;;;;1727561;28;20205;-74
2023/06/18 05:57:01;;;;;;;10.73;9.73;;;20.00;97.20;;;;;;1727880;28;20192;-75
2023/06/18 05:57:52;;;;;;;11.15;10.15;;;20.00;97.20;;;;;;1727753;28;20483;-74
2023/06/18 05:58:43;;;;;;;11.23;10.13;;;20.00;97.20;;;;;;1727570;28;20230;-74
2023/06/18 05:59:34;;;;;;;10.05;9.15;;;20.10;97.20;;;;;;1727840;28;20212;-74
2023/06/18 06:00:26;;;;;;;10.40;9.50;;;20.10;97.20;;;;;;1727770;28;20206;-74
2023/06/18 06:01:17;;;;;;;11.68;10.57;;;20.20;97.20;;;;;;1727793;28;20205;-74
2023/06/18 06:02:10;;;;;;;10.77;9.83;;;20.20;97.20;;;;;;1727715;28;20201;-74
2023/06/18 06:03:00;;;;;;;11.68;10.32;;;20.20;97.20;;;;;;1727875;28;20282;-74
2023/06/18 06:03:52;;;;;;;10.30;9.40;;;20.30;97.20;;;;;;1727799;28;20197;-74
2023/06/18 06:04:43;;;;;;;10.57;9.70;;;20.30;97.20;;;;;;1727843;28;20215;-74
2023/06/18 06:05:35;;;;;;;10.00;9.10;;;20.40;97.20;;;;;;1727807;28;20651;-74
2023/06/18 06:06:25;;;;;;;11.52;10.45;;;20.40;97.20;;;;;;1727835;28;20204;-74
2023/06/18 06:07:17;;;;;;;11.73;9.93;;;20.50;97.20;;;;;;1727875;28;20208;-74
2023/06/18 06:08:08;;;;;;;10.55;9.55;;;20.50;97.20;;;;;;1727576;28;20208;-74
2023/06/18 06:09:00;;;;;;;10.80;9.90;;;20.50;97.20;;;;;;1727770;28;20195;-74
2023/06/18 06:09:51;;;;;;;9.93;9.02;;;20.60;97.20;;;;;;1727831;28;20204;-75
2023/06/18 06:10:43;;;;;;;9.60;8.77;;;20.60;97.20;;;;;;1727876;28;20303;-74
2023/06/18 06:11:36;;;;;;;9.63;8.73;;;20.60;97.20;;;;;;1727751;28;20443;-74
2023/06/18 06:12:28;;;;;;;10.50;9.50;;;20.70;97.20;;;;;;1727220;28;20721;-73
2023/06/18 06:13:19;;;;;;;10.38;9.38;;;20.70;97.20;;;;;;1727701;28;20204;-74
2023/06/18 06:14:11;;;;;;;9.33;8.47;;;20.70;97.20;;;;;;1727387;28;20203;-73
2023/06/18 06:15:01;;;;;;;10.98;8.63;;;20.70;97.20;;;;;;1727634;28;20570;-74
2023/06/18 06:15:53;;;;;;;10.70;9.80;;;20.80;97.20;;;;;;1727707;28;20219;-74
2023/06/18 06:16:44;;;;;;;9.63;8.85;;;20.80;97.20;;;;;;1727720;28;20454;-73
2023/06/18 06:17:37;;;;;;;9.63;8.73;;;20.80;97.20;;;;;;1727521;28;20203;-74
2023/06/18 06:18:28;;;;;;;11.10;9.25;;;20.90;97.20;;;;;;1727421;28;20239;-73
2023/06/18 06:19:19;;;;;;;10.57;9.67;;;20.90;97.20;;;;;;1727843;28;20196;-73
2023/06/18 06:20:11;;;;;;;11.35;10.10;;;20.90;97.20;;;;;;1727787;28;20464;-73
2023/06/18 06:21:02;;;;;;;10.82;9.85;;;20.90;97.20;;;;;;1727737;28;20196;-74
2023/06/18 06:21:53;;;;;;;10.85;9.75;;;21.00;97.20;;;;;;1727496;28;20201;-74
2023/06/18 06:22:45;;;;;;;9.53;8.73;;;21.00;97.20;;;;;;1727829;28;20210;-73
2023/06/18 06:23:36;;;;;;;10.73;9.82;;;21.00;97.20;;;;;;1727561;28;20205;-73
2023/06/18 06:24:27;;;;;;;11.73;9.57;;;21.10;97.20;;;;;;1727643;28;20200;-73
2023/06/18 06:25:18;;;;;;;9.55;8.75;;;21.10;97.20;;;;;;1727491;28;20443;-73
2023/06/18 06:26:10;;;;;;;11.43;9.53;;;21.10;97.20;;;;;;1727805;28;20208;-73
2023/06/18 06:27:01;;;;;;;12.55;8.93;;;21.10;97.20;;;;;;1727750;28;20471;-74
2023/06/18 06:27:52;;;;;;;9.97;9.07;;;21.20;97.20;;;;;;1727249;28;20192;-74
2023/06/18 06:28:43;;;;;;;10.70;9.15;;;21.20;97.20;;;;;;1727483;28;20196;-73
2023/06/18 06:29:35;;;;;;;12.30;9.20;;;21.20;97.20;;;;;;1727799;28;20288;-73
2023/06/18 06:30:26;;;;;;;10.90;9.85;;;21.20;97.20;;;;;;1727472;28;20204;-74
2023/06/18 06:31:17;;;;;;;10.67;9.60;;;21.30;97.20;;;;;;1727766;28;20368;-73
2023/06/18 06:32:08;;;;;;;10.35;9.35;;;21.30;97.20;;;;;;1727409;28;20451;-73
2023/06/18 06:33:01;;;;;;;9.60;8.60;;;21.30;97.20;;;;;;1727643;28;20196;-73
2023/06/18 06:33:52;;;;;;;16.17;10.20;;;21.40;97.20;;;;;;1727574;28;20608;-73
2023/06/18 06:34:44;;;;;;;10.03;8.90;;;21.40;97.20;;;;;;1727206;28;20300;-73
2023/06/18 06:35:36;;;;;;;9.45;8.45;;;21.50;97.20;;;;;;1729040;28;20443;-73
2023/06/18 06:36:28;;;;;;;10.13;9.15;;;21.50;97.20;;;;;;1727553;28;20201;-73
2023/06/18 06:37:19;;;;;;;10.13;9.32;;;21.60;97.20;;;;;;1727490;28;20204;-73
2023/06/18 06:38:11;;;;;;;10.15;9.15;;;21.60;97.20;;;;;;1727373;28;20228;-73
2023/06/18 06:39:03;;;;;;;10.32;9.52;;;21.60;97.20;;;;;;1720928;28;20232;-73
2023/06/18 06:39:54;;;;;;;9.48;8.55;;;21.60;97.20;;;;;;1720893;28;20205;-73
2023/06/18 06:40:45;;;;;;;9.80;9.00;;;21.70;97.20;;;;;;1720785;28;20623;-73
2023/06/18 06:41:37;;;;;;;10.20;9.30;;;21.70;97.20;;;;;;1720957;28;20204;-73
2023/06/18 06:42:27;;;;;;;9.57;8.77;;;21.70;97.20;;;;;;1720315;28;20228;-73
2023/06/18 06:43:19;;;;;;;11.00;10.10;;;21.80;97.20;;;;;;1720886;28;20223;-73
2023/06/18 06:44:10;;;;;;;9.63;8.73;;;21.80;97.20;;;;;;1720734;28;20296;-73
2023/06/18 06:45:02;;;;;;;9.33;8.50;;;21.80;97.20;;;;;;1726764;28;20246;-73
2023/06/18 06:45:53;;;;;;;9.85;9.05;;;21.90;97.20;;;;;;1727618;28;20212;-73
2023/06/18 06:46:44;;;;;;;10.60;9.70;;;21.90;97.20;;;;;;1727639;28;20259;-73
2023/06/18 06:47:35;;;;;;;10.00;9.20;;;22.00;97.20;;;;;;1727371;28;20259;-73
2023/06/18 06:48:28;;;;;;;10.23;9.23;;;22.00;97.20;;;;;;1727336;28;20205;-73
2023/06/18 06:49:19;;;;;;;10.00;8.98;;;22.00;97.20;;;;;;1727697;28;20683;-73
2023/06/18 06:50:11;;;;;;;9.43;8.63;;;22.10;97.20;;;;;;1727654;28;20556;-73
2023/06/18 06:51:02;;;;;;;11.40;8.60;;;22.10;97.20;;;;;;1727492;28;20446;-73
2023/06/18 06:51:55;;;;;;;9.70;8.80;;;22.10;97.20;;;;;;1727324;28;20202;-73
2023/06/18 06:52:46;;;;;;;9.10;8.38;;;22.20;97.20;;;;;;1727643;28;20674;-73
2023/06/18 06:53:37;;;;;;;10.23;9.33;;;22.20;97.20;;;;;;1727504;28;20734;-73
2023/06/18 06:54:28;;;;;;;11.32;10.20;;;22.30;97.20;;;;;;1727636;28;20688;-73
2023/06/18 06:55:20;;;;;;;10.80;9.80;;;22.30;97.20;;;;;;1727587;28;20571;-73
2023/06/18 06:56:11;;;;;;;8.60;7.80;;;22.30;97.20;;;;;;1727444;28;20200;-73
2023/06/18 06:57:03;;;;;;;8.90;8.20;;;22.40;97.20;;;;;;1727604;28;20208;-75
2023/06/18 06:57:53;;;;;;;11.30;9.30;;;22.40;97.20;;;;;;1727415;28;20200;-73
2023/06/18 06:58:45;;;;;;;9.50;8.53;;;22.40;97.20;;;;;;1727286;28;20224;-73
2023/06/18 06:59:36;;;;;;;10.00;9.00;;;22.50;97.20;;;;;;1727520;28;20583;-73
2023/06/18 07:00:28;;;;;;;8.67;7.80;;;22.50;97.20;;;;;;1727330;28;20542;-73
2023/06/18 07:01:19;;;;;;;11.95;8.55;;;22.60;97.20;;;;;;1727188;28;20207;-73
2023/06/18 07:02:11;;;;;;;10.20;9.00;;;22.60;97.20;;;;;;1727223;28;20200;-73
2023/06/18 07:03:01;;;;;;;9.38;8.57;;;22.70;97.20;;;;;;1727474;28;20594;-73
2023/06/18 07:03:54;;;;;;;8.87;8.17;;;22.70;97.20;;;;;;1727463;28;20582;-73
2023/06/18 07:04:47;;;;;;;9.48;8.68;;;22.80;97.20;;;;;;1727507;28;20220;-73
2023/06/18 07:05:40;;;;;;;8.43;7.72;;;22.80;97.20;;;;;;1727478;28;20308;-73
2023/06/18 07:06:31;;;;;;;9.23;8.40;;;22.90;97.20;;;;;;1727428;28;20239;-73
2023/06/18 07:07:22;;;;;;;9.43;8.60;;;22.90;97.20;;;;;;1727494;28;20204;-73
2023/06/18 07:08:13;;;;;;;9.88;8.88;;;22.90;97.20;;;;;;1727247;28;20443;-73
2023/06/18 07:09:05;;;;;;;9.03;8.33;;;23.00;97.20;;;;;;1727404;28;20211;-73
2023/06/18 07:09:56;;;;;;;9.07;8.38;;;23.00;97.20;;;;;;1727616;28;20208;-73
2023/06/18 07:10:48;;;;;;;9.10;8.40;;;23.10;97.20;;;;;;1727429;28;20227;-73
2023/06/18 07:11:40;;;;;;;9.20;8.50;;;23.10;97.20;;;;;;1727350;28;20204;-73
2023/06/18 07:12:32;;;;;;;8.75;7.88;;;23.20;97.20;;;;;;1727190;28;20627;-73
2023/06/18 07:13:22;;;;;;;8.90;8.00;;;23.20;97.20;;;;;;1727511;28;20229;-74
2023/06/18 07:14:15;;;;;;;9.80;8.90;;;23.30;97.20;;;;;;1727354;28;20215;-73
2023/06/18 07:15:07;;;;;;;9.05;8.25;;;23.30;97.20;;;;;;1727420;28;20209;-73
2023/06/18 07:15:58;;;;;;;12.43;8.40;;;23.30;97.20;;;;;;1727491;28;20204;-73
2023/06/18 07:16:49;;;;;;;10.13;9.15;;;23.30;97.20;;;;;;1727416;28;20204;-74
2023/06/18 07:17:41;;;;;;;8.93;8.23;;;23.40;97.20;;;;;;1727112;28;20206;-73
2023/06/18 07:18:32;;;;;;;8.90;8.20;;;23.40;97.20;;;;;;1726817;28;20487;-73
2023/06/18 07:19:25;;;;;;;9.23;7.67;;;23.50;97.20;;;;;;1726996;28;20208;-73
2023/06/18 07:20:16;;;;;;;9.90;8.02;;;23.50;97.20;;;;;;1726922;28;20200;-72
2023/06/18 07:21:07;;;;;;;9.20;8.40;;;23.50;97.20;;;;;;1734062;28;20278;-72
2023/06/18 07:21:59;;;;;;;8.80;8.00;;;23.50;97.20;;;;;;1727685;28;20566;-71
2023/06/18 07:22:51;;;;;;;8.93;8.15;;;23.60;97.20;;;;;;1727409;28;20692;-72
2023/06/18 07:23:41;;;;;;;9.07;8.27;;;23.60;97.20;;;;;;1727415;28;20200;-72
2023/06/18 07:24:33;;;;;;;8.83;8.13;;;23.70;97.20;;;;;;1727400;28;20209;-71
2023/06/18 07:25:24;;;;;;;8.48;7.78;;;23.70;97.20;;;;;;1727413;28;20617;-72
2023/06/18 07:26:15;;;;;;;9.37;8.33;;;23.80;97.20;;;;;;1727097;28;20200;-72
2023/06/18 07:27:06;;;;;;;9.35;8.00;;;23.90;97.20;;;;;;1727157;28;20651;-72
2023/06/18 07:27:58;;;;;;;8.67;7.97;;;23.90;97.20;;;;;;1727349;28;20654;-72
2023/06/18 07:28:49;;;;;;;8.35;7.65;;;24.00;97.20;;;;;;1727990;28;20197;-73
2023/06/18 07:29:40;;;;;;;8.63;7.80;;;24.00;97.20;;;;;;1727615;28;20658;-72
2023/06/18 07:30:31;;;;;;;8.80;8.00;;;24.10;97.20;;;;;;1730270;28;20220;-72
2023/06/18 07:31:23;;;;;;;8.43;7.73;;;24.10;97.20;;;;;;1727470;28;20188;-72
2023/06/18 07:32:14;;;;;;;8.05;7.07;;;24.20;97.20;;;;;;1727108;28;20462;-71
2023/06/18 07:33:05;;;;;;;7.60;7.00;;;24.20;97.20;;;;;;1727275;28;20207;-72
2023/06/18 07:33:56;;;;;;;10.68;8.23;;;24.20;97.20;;;;;;1727285;28;20443;-72
2023/06/18 07:34:49;;;;;;;9.37;8.57;;;24.30;97.20;;;;;;1728420;28;20705;-72
2023/06/18 07:35:40;;;;;;;8.45;7.20;;;24.30;97.20;;;;;;1731928;28;20199;-71
2023/06/18 07:36:32;;;;;;;11.77;8.23;;;24.30;97.20;;;;;;1733553;28;20694;-72
2023/06/18 07:37:23;;;;;;;7.95;7.25;;;24.40;97.20;;;;;;1733879;28;20501;-72
2023/06/18 07:38:14;;;;;;;8.60;7.90;;;24.40;97.20;;;;;;1735492;28;20203;-71
2023/06/18 07:39:05;;;;;;;8.18;7.40;;;24.40;97.20;;;;;;1728701;28;20200;-71
2023/06/18 07:39:57;;;;;;;8.23;7.43;;;24.40;97.20;;;;;;1728598;28;20224;-72
2023/06/18 07:40:48;;;;;;;8.15;7.35;;;24.50;97.20;;;;;;1728663;28;20223;-72
2023/06/18 07:41:41;;;;;;;7.77;7.10;;;24.50;97.20;;;;;;1728509;28;20203;-72
2023/06/18 07:42:32;;;;;;;8.47;7.77;;;24.50;97.20;;;;;;1728366;28;20826;-72
2023/06/18 07:43:23;;;;;;;8.33;7.63;;;24.60;97.20;;;;;;1728313;28;20906;-73
2023/06/18 07:44:14;;;;;;;9.07;8.27;;;24.60;97.20;;;;;;1730266;28;20201;-72
2023/06/18 07:45:07;;;;;;;8.67;7.80;;;24.60;97.20;;;;;;1735211;28;20438;-72
2023/06/18 07:45:58;;;;;;;9.10;8.20;;;24.60;97.20;;;;;;1728784;28;20204;-71
2023/06/18 07:46:50;;;;;;;10.98;8.88;;;24.70;97.20;;;;;;1728480;28;20208;-71
2023/06/18 07:47:41;;;;;;;10.85;8.23;;;24.70;97.20;;;;;;1728324;28;20208;-71
2023/06/18 07:48:33;;;;;;;9.70;7.85;;;24.80;97.20;;;;;;1727297;28;20201;-71
2023/06/18 07:49:24;;;;;;;15.40;7.95;;;24.90;97.20;;;;;;1727362;28;20588;-72
2023/06/18 07:50:17;;;;;;;12.20;8.30;;;24.90;97.20;;;;;;1728049;28;20224;-71
2023/06/18 07:51:08;;;;;;;8.10;7.40;;;25.00;97.20;;;;;;1728334;28;20843;-72
2023/06/18 07:52:01;;;;;;;10.37;7.97;;;25.00;97.20;;;;;;1728286;28;20466;-71
2023/06/18 07:52:52;;;;;;;9.43;8.52;;;25.10;97.20;;;;;;1728627;28;20689;-72
2023/06/18 07:53:43;;;;;;;8.57;7.80;;;25.10;97.20;;;;;;1728625;28;20640;-71
2023/06/18 07:54:35;;;;;;;9.00;8.10;;;25.20;97.20;;;;;;1728653;28;20208;-72
2023/06/18 07:55:26;;;;;;;8.83;8.00;;;25.30;97.20;;;;;;1728539;28;20570;-72
2023/06/18 07:56:17;;;;;;;9.18;8.40;;;25.30;97.20;;;;;;1728704;28;20804;-72
2023/06/18 07:57:09;;;;;;;8.07;7.37;;;25.30;97.20;;;;;;1727490;28;20617;-72
2023/06/18 07:58:00;;;;;;;8.80;8.10;;;25.30;97.20;;;;;;1728256;28;20659;-72
2023/06/18 07:58:51;;;;;;;9.07;8.27;;;25.40;97.20;;;;;;1728599;28;20862;-72
2023/06/18 07:59:42;;;;;;;8.60;7.80;;;25.40;97.20;;;;;;1728240;28;20204;-71
2023/06/18 08:00:34;;;;;;;8.40;7.70;;;25.40;97.20;;;;;;1728284;28;20212;-72
2023/06/18 08:01:25;;;;;;;8.93;8.20;;;25.50;97.20;;;;;;1728236;28;20215;-73
2023/06/18 08:02:16;;;;;;;8.73;7.93;;;25.50;97.20;;;;;;1727869;28;20526;-72
2023/06/18 08:03:07;;;;;;;8.70;7.90;;;25.60;97.20;;;;;;1728806;28;20196;-72
2023/06/18 08:03:59;;;;;;;8.87;8.00;;;25.60;97.20;;;;;;1728149;28;20651;-73
2023/06/18 08:04:50;;;;;;;9.50;8.03;;;25.60;97.20;;;;;;1728080;28;20443;-72
2023/06/18 08:05:43;;;;;;;9.47;8.47;;;25.70;97.20;;;;;;1728254;28;20538;-71
2023/06/18 08:06:34;;;;;;;9.30;8.50;;;25.70;97.20;;;;;;1728259;28;20203;-72
2023/06/18 08:07:26;;;;;;;9.37;8.47;;;25.70;97.20;;;;;;1728077;28;20199;-72
2023/06/18 08:08:17;;;;;;;8.82;8.00;;;25.60;97.20;;;;;;1728057;28;20454;-72
2023/06/18 08:09:09;;;;;;;8.43;7.73;;;25.60;97.20;;;;;;1727763;28;20189;-72
2023/06/18 08:09:59;;;;;;;9.57;8.77;;;25.70;97.20;;;;;;1728272;28;20204;-72
2023/06/18 08:10:51;;;;;;;8.00;7.40;;;25.70;97.20;;;;;;1728049;28;20216;-72
2023/06/18 08:11:42;;;;;;;9.00;8.30;;;25.70;97.20;;;;;;1728124;28;20196;-71
2023/06/18 08:12:34;;;;;;;8.43;7.73;;;25.70;97.20;;;;;;1727993;28;20436;-71
2023/06/18 08:13:25;;;;;;;10.30;9.30;;;25.70;97.20;;;;;;1728057;28;20450;-73
2023/06/18 08:14:17;;;;;;;8.53;7.73;;;25.70;97.20;;;;;;1728190;28;20450;-72
2023/06/18 08:15:09;;;;;;;8.80;8.00;;;25.80;97.20;;;;;;1726981;28;20201;-73
2023/06/18 08:16:01;;;;;;;8.73;7.90;;;25.80;97.20;;;;;;1728115;28;21099;-72
2023/06/18 08:16:52;;;;;;;8.33;7.63;;;25.80;97.20;;;;;;1728057;28;20450;-71
2023/06/18 08:17:44;;;;;;;8.53;7.83;;;25.90;97.20;;;;;;1728160;28;20948;-72
2023/06/18 08:18:35;;;;;;;9.00;8.13;;;25.90;97.20;;;;;;1727753;28;20220;-73
2023/06/18 08:19:26;;;;;;;8.57;7.83;;;26.00;97.20;;;;;;1727856;28;20531;-72
2023/06/18 08:20:17;;;;;;;9.30;8.50;;;26.10;97.20;;;;;;1728044;28;20666;-72
2023/06/18 08:21:11;;;;;;;9.30;8.40;;;26.10;97.20;;;;;;1728206;28;20803;-73
2023/06/18 08:22:02;;;;;;;8.53;7.83;;;26.10;97.20;;;;;;1727976;28;20470;-74
2023/06/18 08:22:54;;;;;;;9.50;8.60;;;26.20;97.20;;;;;;1727938;28;20466;-72
2023/06/18 08:23:44;;;;;;;8.40;7.60;;;26.20;97.20;;;;;;1728082;28;20447;-73
2023/06/18 08:24:36;;;;;;;8.80;8.10;;;26.20;97.20;;;;;;1728094;28;20439;-72
2023/06/18 08:25:28;;;;;;;9.77;8.97;;;26.20;97.20;;;;;;1728007;28;20559;-72
2023/06/18 08:26:22;;;;;;;9.23;8.00;;;26.30;97.20;;;;;;1728036;28;20494;-73
2023/06/18 08:27:13;;;;;;;9.50;8.53;;;26.30;97.20;;;;;;1725868;28;20478;-72
2023/06/18 08:28:04;;;;;;;8.27;7.60;;;26.30;97.20;;;;;;1727003;28;20439;-72
2023/06/18 08:28:55;;;;;;;8.40;7.70;;;26.40;97.20;;;;;;1727497;28;20193;-72
2023/06/18 08:29:47;;;;;;;9.10;8.30;;;26.50;97.20;;;;;;1728082;28;20447;-71
2023/06/18 08:30:38;;;;;;;8.57;7.90;;;26.50;97.20;;;;;;1728082;28;20227;-71
2023/06/18 08:31:30;;;;;;;9.33;8.43;;;26.50;97.20;;;;;;1727882;28;20435;-71
2023/06/18 08:32:20;;;;;;;9.07;8.27;;;26.50;97.20;;;;;;1727818;28;20193;-71
2023/06/18 08:33:12;;;;;;;8.00;7.40;;;26.50;97.20;;;;;;1727965;28;20443;-71
2023/06/18 08:34:03;;;;;;;9.80;7.53;;;26.60;97.20;;;;;;1727846;28;20576;-72
2023/06/18 08:34:54;;;;;;;8.20;7.53;;;26.60;97.20;;;;;;1727917;28;20435;-72
2023/06/18 08:35:45;;;;;;;8.50;7.80;;;26.70;97.20;;;;;;1725908;28;20203;-72
2023/06/18 08:36:38;;;;;;;8.40;7.70;;;26.70;97.20;;;;;;1728090;28;20450;-71
2023/06/18 08:37:29;;;;;;;9.23;7.93;;;26.80;97.20;;;;;;1727876;28;20306;-73
2023/06/18 08:38:21;;;;;;;9.47;8.60;;;26.80;97.20;;;;;;1727860;28;20439;-72
2023/06/18 08:39:12;;;;;;;9.77;8.80;;;26.90;97.20;;;;;;1727377;28;20200;-73
2023/06/18 08:40:04;;;;;;;9.77;8.80;;;26.90;97.20;;;;;;1727955;28;20431;-72
2023/06/18 08:40:55;;;;;;;8.57;7.77;;;26.90;97.20;;;;;;1725280;28;20460;-72
2023/06/18 08:41:47;;;;;;;8.37;7.57;;;26.90;97.20;;;;;;1728833;28;20955;-72
2023/06/18 08:42:38;;;;;;;8.43;7.67;;;26.90;97.20;;;;;;1728059;28;20955;-72
2023/06/18 08:43:32;;;;;;;8.73;7.93;;;26.90;97.20;;;;;;1724869;28;21020;-72
2023/06/18 08:44:25;;;;;;;10.03;8.90;;;27.00;97.20;;;;;;1728404;28;20209;-72
2023/06/18 08:45:16;;;;;;;9.50;7.93;;;27.10;97.20;;;;;;1728319;28;20435;-72
2023/06/18 08:46:09;;;;;;;8.50;7.70;;;27.10;97.20;;;;;;1728363;28;21118;-73
2023/06/18 08:47:03;;;;;;;8.77;7.63;;;27.10;97.20;;;;;;1728342;28;20435;-72
2023/06/18 08:47:58;;;;;;;8.30;7.60;;;27.10;97.20;;;;;;1727775;28;20491;-71
2023/06/18 08:48:57;;;;;;;9.97;7.60;;;27.20;97.20;;;;;;1728170;28;20442;-72
2023/06/18 08:49:50;;;;;;;15.80;8.00;;;27.20;97.20;;;;;;1728370;28;20450;-72
2023/06/18 08:50:43;;;;;;;11.40;8.17;;;27.20;97.20;;;;;;1727527;28;20980;-72
2023/06/18 08:51:38;;;;;;;10.00;7.90;;;27.30;97.20;;;;;;1725636;28;20597;-72
2023/06/18 08:52:31;;;;;;;8.60;7.80;;;27.30;97.20;;;;;;1724270;28;20444;-72
2023/06/18 08:53:29;;;;;;;8.60;7.87;;;27.30;97.20;;;;;;1728232;28;20446;-71
2023/06/18 08:54:23;;;;;;;8.73;7.93;;;27.40;97.20;;;;;;1721481;28;20440;-73
2023/06/18 08:55:14;;;;;;;8.30;7.50;;;27.40;97.20;;;;;;1721537;28;20961;-72
2023/06/18 08:56:08;;;;;;;8.10;7.50;;;27.50;97.20;;;;;;1721559;28;20934;-72
2023/06/18 08:57:06;;;;;;;8.70;7.83;;;27.50;97.20;;;;;;1727525;28;20478;-72
2023/06/18 08:58:05;;;;;;;8.73;7.80;;;27.60;97.20;;;;;;1728192;28;20509;-72
2023/06/18 08:58:57;;;;;;;9.00;8.30;;;27.60;97.20;;;;;;1727366;28;20488;-72
2023/06/18 08:59:49;;;;;;;8.57;7.87;;;27.70;97.20;;;;;;1728235;28;20479;-72
2023/06/18 09:00:40;;;;;;;9.30;8.50;;;27.70;97.20;;;;;;1728542;28;20470;-73
2023/06/18 09:01:33;;;;;;;8.13;7.53;;;27.70;97.20;;;;;;1735050;28;20450;-71
2023/06/18 09:02:25;;;;;;;8.33;7.63;;;27.70;97.20;;;;;;1734821;28;20940;-73
2023/06/18 09:03:17;;;;;;;8.20;7.40;;;27.70;97.20;;;;;;1735242;28;20438;-71
2023/06/18 09:04:08;;;;;;;9.20;8.30;;;27.70;97.20;;;;;;1735049;28;20447;-71
2023/06/18 09:05:03;;;;;;;9.40;8.50;;;27.70;97.20;;;;;;1730574;28;20964;-72
2023/06/18 09:05:54;;;;;;;7.70;7.10;;;27.60;97.20;;;;;;1728145;28;20448;-73
2023/06/18 09:06:47;;;;;;;8.00;7.30;;;27.60;97.20;;;;;;1725464;28;20446;-72
2023/06/18 09:07:38;;;;;;;8.23;7.57;;;27.60;97.20;;;;;;1728054;28;20458;-72
2023/06/18 09:08:33;;;;;;;8.00;7.30;;;27.50;97.20;;;;;;1727989;28;20450;-72
2023/06/18 09:09:25;;;;;;;9.10;8.30;;;27.50;97.20;;;;;;1727934;28;20944;-71
2023/06/18 09:10:18;;;;;;;7.60;6.77;;;27.50;97.20;;;;;;1727968;28;20968;-73
2023/06/18 09:11:09;;;;;;;8.13;7.53;;;27.50;97.20;;;;;;1728162;28;20470;-73
2023/06/18 09:12:01;;;;;;;8.40;7.70;;;27.60;97.20;;;;;;1727939;28;20486;-72
2023/06/18 09:12:52;;;;;;;8.03;7.33;;;27.60;97.20;;;;;;1727776;28;20535;-72
2023/06/18 09:13:44;;;;;;;8.23;7.63;;;27.60;97.20;;;;;;1728116;28;20607;-73
2023/06/18 09:14:35;;;;;;;7.07;6.47;;;27.60;97.20;;;;;;1728056;28;20454;-73
2023/06/18 09:15:27;;;;;;;8.33;7.53;;;27.60;97.20;;;;;;1725457;28;20450;-73
2023/06/18 09:16:17;;;;;;;9.30;8.20;;;27.60;97.20;;;;;;1728108;28;20196;-73
2023/06/18 09:17:09;;;;;;;10.43;8.30;;;27.60;97.20;;;;;;1728012;28;20441;-73
2023/06/18 09:18:00;;;;;;;9.40;8.50;;;27.60;97.20;;;;;;1727908;28;20225;-72
2023/06/18 09:18:52;;;;;;;8.93;8.03;;;27.60;97.20;;;;;;1727552;28;20451;-73
2023/06/18 09:19:45;;;;;;;8.43;7.63;;;27.70;97.20;;;;;;1727780;28;20228;-73
2023/06/18 09:20:38;;;;;;;8.17;7.43;;;27.70;97.20;;;;;;1727559;28;20459;-73
2023/06/18 09:21:34;;;;;;;9.10;8.30;;;27.80;97.20;;;;;;1727996;28;20447;-73
2023/06/18 09:22:27;;;;;;;9.47;8.57;;;27.80;97.20;;;;;;1727695;28;20442;-72
2023/06/18 09:23:18;;;;;;;9.00;8.10;;;27.90;97.20;;;;;;1725297;28;20455;-72
2023/06/18 09:24:16;;;;;;;10.90;9.90;;;27.90;97.20;;;;;;1727719;28;20462;-73
2023/06/18 09:25:08;;;;;;;10.63;9.30;;;28.00;97.20;;;;;;1728056;28;20689;-73
2023/06/18 09:26:00;;;;;;;8.00;7.20;;;28.10;97.20;;;;;;1725269;28;20443;-72
2023/06/18 09:27:00;;;;;;;8.67;7.80;;;28.10;97.20;;;;;;1727547;28;20454;-73